sensor_id;sensor_type;location;lat;lon;timestamp;pressure;altitude;pressure_sealevel;temperature;humidity
26775;BME280;14362;51.902;7.626;2023-02-03T00:02:06;101654.53;;;8.12;100.00
26775;BME280;14362;51.902;7.626;2023-02-03T00:06:09;101645.38;;;8.12;100.00
26775;BME280;14362;51.902;7.626;2023-02-03T00:10:11;101638.69;;;8.13;100.00
26775;BME280;14362;51.902;7.626;2023-02-03T00:14:13;101644.00;;;8.09;100.00
26775;BME280;14362;51.902;7.626;2023-02-03T00:18:14;101645.66;;;8.10;100.00
26775;BME280;14362;51.902;7.626;2023-02-03T00:22:17;101646.50;;;8.11;100.00
26775;BME280;14362;51.902;7.626;2023-02-03T00:26:18;101640.94;;;8.16;100.00
26775;BME280;14362;51.902;7.626;2023-02-03T00:30:20;101649.81;;;8.13;100.00
26775;BME280;14362;51.902;7.626;2023-02-03T00:34:21;101645.91;;;8.14;100.00
26775;BME280;14362;51.902;7.626;2023-02-03T00:38:27;101647.34;;;8.16;100.00
26775;BME280;14362;51.902;7.626;2023-02-03T00:42:28;101653.69;;;8.17;100.00
26775;BME280;14362;51.902;7.626;2023-02-03T00:46:30;101650.66;;;8.18;100.00
26775;BME280;14362;51.902;7.626;2023-02-03T00:50:31;101656.22;;;8.18;100.00
26775;BME280;14362;51.902;7.626;2023-02-03T00:54:34;101666.47;;;8.18;100.00
26775;BME280;14362;51.902;7.626;2023-02-03T00:58:35;101676.19;;;8.20;100.00
26775;BME280;14362;51.902;7.626;2023-02-03T01:02:36;101692.53;;;8.27;100.00
26775;BME280;14362;51.902;7.626;2023-02-03T01:06:39;101698.38;;;8.25;100.00
26775;BME280;14362;51.902;7.626;2023-02-03T01:10:42;101690.03;;;8.25;100.00
26775;BME280;14362;51.902;7.626;2023-02-03T01:14:44;101679.22;;;8.24;100.00
26775;BME280;14362;51.902;7.626;2023-02-03T01:18:46;101684.16;;;8.32;100.00
26775;BME280;14362;51.902;7.626;2023-02-03T01:22:47;101687.00;;;8.27;100.00
26775;BME280;14362;51.902;7.626;2023-02-03T01:26:50;101688.34;;;8.29;100.00
26775;BME280;14362;51.902;7.626;2023-02-03T01:30:51;101696.69;;;8.29;100.00
26775;BME280;14362;51.902;7.626;2023-02-03T01:34:53;101686.16;;;8.26;100.00
26775;BME280;14362;51.902;7.626;2023-02-03T01:38:55;101700.81;;;8.37;100.00
26775;BME280;14362;51.902;7.626;2023-02-03T01:42:57;101673.31;;;8.35;100.00
26775;BME280;14362;51.902;7.626;2023-02-03T01:46:59;101672.75;;;8.38;100.00
26775;BME280;14362;51.902;7.626;2023-02-03T01:51:01;101674.13;;;8.36;100.00
26775;BME280;14362;51.902;7.626;2023-02-03T01:55:07;101678.59;;;8.37;100.00
26775;BME280;14362;51.902;7.626;2023-02-03T01:59:14;101683.03;;;8.38;100.00
26775;BME280;14362;51.902;7.626;2023-02-03T02:03:17;101658.03;;;8.33;100.00
26775;BME280;14362;51.902;7.626;2023-02-03T02:07:20;101636.34;;;8.40;100.00
26775;BME280;14362;51.902;7.626;2023-02-03T02:11:21;101629.97;;;8.39;100.00
26775;BME280;14362;51.902;7.626;2023-02-03T02:15:30;101628.34;;;8.33;100.00
26775;BME280;14362;51.902;7.626;2023-02-03T02:20:03;101603.34;;;8.33;100.00
26775;BME280;14362;51.902;7.626;2023-02-03T02:24:30;101611.94;;;8.32;100.00
26775;BME280;14362;51.902;7.626;2023-02-03T02:28:57;101595.56;;;8.35;100.00
26775;BME280;14362;51.902;7.626;2023-02-03T02:33:10;101601.34;;;8.39;100.00
26775;BME280;14362;51.902;7.626;2023-02-03T02:37:23;101580.25;;;8.38;100.00
26775;BME280;14362;51.902;7.626;2023-02-03T02:41:28;101576.34;;;8.39;100.00
26775;BME280;14362;51.902;7.626;2023-02-03T02:45:41;101611.38;;;8.35;100.00
26775;BME280;14362;51.902;7.626;2023-02-03T02:49:51;101616.31;;;8.43;100.00
26775;BME280;14362;51.902;7.626;2023-02-03T02:53:57;101620.25;;;8.37;100.00
26775;BME280;14362;51.902;7.626;2023-02-03T02:58:03;101636.91;;;8.37;100.00
26775;BME280;14362;51.902;7.626;2023-02-03T03:02:07;101658.31;;;8.36;100.00
26775;BME280;14362;51.902;7.626;2023-02-03T03:06:15;101644.97;;;8.38;100.00
26775;BME280;14362;51.902;7.626;2023-02-03T03:10:21;101619.69;;;8.35;100.00
26775;BME280;14362;51.902;7.626;2023-02-03T03:14:26;101599.44;;;8.34;100.00
26775;BME280;14362;51.902;7.626;2023-02-03T03:18:30;101607.22;;;8.32;100.00
26775;BME280;14362;51.902;7.626;2023-02-03T03:22:39;101615.47;;;8.42;100.00
26775;BME280;14362;51.902;7.626;2023-02-03T03:26:48;101616.94;;;8.35;100.00
26775;BME280;14362;51.902;7.626;2023-02-03T03:30:51;101613.03;;;8.36;100.00
26775;BME280;14362;51.902;7.626;2023-02-03T03:34:53;101603.88;;;8.35;100.00
26775;BME280;14362;51.902;7.626;2023-02-03T03:39:02;101610.78;;;8.38;100.00
26775;BME280;14362;51.902;7.626;2023-02-03T03:43:10;101603.81;;;8.40;100.00
26775;BME280;14362;51.902;7.626;2023-02-03T03:47:18;101612.13;;;8.45;100.00
26775;BME280;14362;51.902;7.626;2023-02-03T03:51:25;101605.78;;;8.40;100.00
26775;BME280;14362;51.902;7.626;2023-02-03T03:55:32;101576.66;;;8.37;100.00
26775;BME280;14362;51.902;7.626;2023-02-03T03:59:37;101589.69;;;8.37;100.00
26775;BME280;14362;51.902;7.626;2023-02-03T04:03:44;101588.53;;;8.43;100.00
26775;BME280;14362;51.902;7.626;2023-02-03T04:07:47;101607.69;;;8.44;100.00
26775;BME280;14362;51.902;7.626;2023-02-03T04:11:49;101588.50;;;8.48;100.00
26775;BME280;14362;51.902;7.626;2023-02-03T04:16:05;101577.69;;;8.41;100.00
26775;BME280;14362;51.902;7.626;2023-02-03T04:20:07;101580.22;;;8.43;100.00
26775;BME280;14362;51.902;7.626;2023-02-03T04:24:08;101571.56;;;8.44;100.00
26775;BME280;14362;51.902;7.626;2023-02-03T04:28:12;101565.69;;;8.51;100.00
26775;BME280;14362;51.902;7.626;2023-02-03T04:32:13;101580.75;;;8.45;100.00
26775;BME280;14362;51.902;7.626;2023-02-03T04:36:15;101589.31;;;8.48;100.00
26775;BME280;14362;51.902;7.626;2023-02-03T04:40:17;101576.84;;;8.46;100.00
26775;BME280;14362;51.902;7.626;2023-02-03T04:44:19;101587.63;;;8.52;100.00
26775;BME280;14362;51.902;7.626;2023-02-03T04:48:21;101581.00;;;8.48;100.00
26775;BME280;14362;51.902;7.626;2023-02-03T04:52:22;101585.44;;;8.49;100.00
26775;BME280;14362;51.902;7.626;2023-02-03T04:56:24;101571.00;;;8.47;100.00
26775;BME280;14362;51.902;7.626;2023-02-03T05:00:27;101551.84;;;8.46;100.00
26775;BME280;14362;51.902;7.626;2023-02-03T05:04:29;101543.72;;;8.54;100.00
26775;BME280;14362;51.902;7.626;2023-02-03T05:08:30;101547.31;;;8.55;100.00
26775;BME280;14362;51.902;7.626;2023-02-03T05:12:32;101545.72;;;8.49;100.00
26775;BME280;14362;51.902;7.626;2023-02-03T05:16:35;101536.53;;;8.48;100.00
26775;BME280;14362;51.902;7.626;2023-02-03T05:20:36;101529.88;;;8.49;100.00
26775;BME280;14362;51.902;7.626;2023-02-03T05:24:38;101530.16;;;8.48;100.00
26775;BME280;14362;51.902;7.626;2023-02-03T05:28:39;101542.66;;;8.45;100.00
26775;BME280;14362;51.902;7.626;2023-02-03T05:32:42;101543.22;;;8.47;100.00
26775;BME280;14362;51.902;7.626;2023-02-03T05:36:43;101536.22;;;8.50;100.00
26775;BME280;14362;51.902;7.626;2023-02-03T05:40:46;101529.91;;;8.44;100.00
26775;BME280;14362;51.902;7.626;2023-02-03T05:45:05;101532.41;;;8.46;100.00
26775;BME280;14362;51.902;7.626;2023-02-03T05:49:08;101530.22;;;8.43;100.00
26775;BME280;14362;51.902;7.626;2023-02-03T05:53:10;101537.41;;;8.44;100.00
26775;BME280;14362;51.902;7.626;2023-02-03T05:57:11;101547.06;;;8.51;100.00
26775;BME280;14362;51.902;7.626;2023-02-03T06:01:13;101549.88;;;8.46;100.00
26775;BME280;14362;51.902;7.626;2023-02-03T06:05:17;101545.44;;;8.45;100.00
26775;BME280;14362;51.902;7.626;2023-02-03T06:09:19;101547.16;;;8.41;100.00
26775;BME280;14362;51.902;7.626;2023-02-03T06:13:20;101544.06;;;8.48;100.00
26775;BME280;14362;51.902;7.626;2023-02-03T06:17:21;101540.97;;;8.49;100.00
26775;BME280;14362;51.902;7.626;2023-02-03T06:21:24;101528.72;;;8.55;100.00
26775;BME280;14362;51.902;7.626;2023-02-03T06:25:25;101550.63;;;8.57;100.00
26775;BME280;14362;51.902;7.626;2023-02-03T06:29:27;101555.94;;;8.53;100.00
26775;BME280;14362;51.902;7.626;2023-02-03T06:33:28;101532.06;;;8.52;100.00
26775;BME280;14362;51.902;7.626;2023-02-03T06:37:31;101522.31;;;8.55;100.00
26775;BME280;14362;51.902;7.626;2023-02-03T06:41:34;101535.66;;;8.53;100.00
26775;BME280;14362;51.902;7.626;2023-02-03T06:45:36;101543.38;;;8.61;100.00
26775;BME280;14362;51.902;7.626;2023-02-03T06:49:37;101545.91;;;8.57;100.00
26775;BME280;14362;51.902;7.626;2023-02-03T06:53:43;101554.72;;;8.64;100.00
26775;BME280;14362;51.902;7.626;2023-02-03T06:57:45;101563.06;;;8.64;100.00
26775;BME280;14362;51.902;7.626;2023-02-03T07:01:46;101541.03;;;8.73;100.00
26775;BME280;14362;51.902;7.626;2023-02-03T07:05:48;101537.47;;;8.67;100.00
26775;BME280;14362;51.902;7.626;2023-02-03T07:09:51;101548.78;;;8.76;100.00
26775;BME280;14362;51.902;7.626;2023-02-03T07:13:52;101551.47;;;8.86;100.00
26775;BME280;14362;51.902;7.626;2023-02-03T07:17:54;101549.13;;;8.98;100.00
26775;BME280;14362;51.902;7.626;2023-02-03T07:21:55;101550.53;;;8.95;100.00
26775;BME280;14362;51.902;7.626;2023-02-03T07:25:59;101550.81;;;8.94;100.00
26775;BME280;14362;51.902;7.626;2023-02-03T07:30:02;101551.38;;;8.96;100.00
26775;BME280;14362;51.902;7.626;2023-02-03T07:34:04;101551.78;;;9.08;100.00
26775;BME280;14362;51.902;7.626;2023-02-03T07:38:05;101544.06;;;9.05;100.00
26775;BME280;14362;51.902;7.626;2023-02-03T07:42:08;101540.19;;;9.01;100.00
26775;BME280;14362;51.902;7.626;2023-02-03T07:46:09;101552.41;;;9.05;100.00
26775;BME280;14362;51.902;7.626;2023-02-03T07:50:11;101550.31;;;9.15;100.00
26775;BME280;14362;51.902;7.626;2023-02-03T07:54:12;101542.84;;;9.11;100.00
26775;BME280;14362;51.902;7.626;2023-02-03T07:58:15;101556.72;;;9.15;100.00
26775;BME280;14362;51.902;7.626;2023-02-03T08:02:17;101543.69;;;9.11;100.00
26775;BME280;14362;51.902;7.626;2023-02-03T08:06:18;101537.94;;;9.03;100.00
26775;BME280;14362;51.902;7.626;2023-02-03T08:10:20;101545.72;;;9.06;100.00
26775;BME280;14362;51.902;7.626;2023-02-03T08:14:22;101545.03;;;9.13;100.00
26775;BME280;14362;51.902;7.626;2023-02-03T08:18:24;101537.66;;;9.04;100.00
26775;BME280;14362;51.902;7.626;2023-02-03T08:22:25;101554.88;;;9.06;100.00
26775;BME280;14362;51.902;7.626;2023-02-03T08:26:27;101559.84;;;9.09;100.00
26775;BME280;14362;51.902;7.626;2023-02-03T08:30:30;101549.19;;;9.16;100.00
26775;BME280;14362;51.902;7.626;2023-02-03T08:34:31;101543.09;;;9.14;100.00
26775;BME280;14362;51.902;7.626;2023-02-03T08:38:33;101548.41;;;9.11;100.00
26775;BME280;14362;51.902;7.626;2023-02-03T08:42:35;101557.53;;;9.16;100.00
26775;BME280;14362;51.902;7.626;2023-02-03T08:46:38;101572.16;;;9.26;100.00
26775;BME280;14362;51.902;7.626;2023-02-03T08:50:43;101549.97;;;9.21;100.00
26775;BME280;14362;51.902;7.626;2023-02-03T08:54:51;101540.19;;;9.24;100.00
26775;BME280;14362;51.902;7.626;2023-02-03T08:58:52;101552.94;;;9.30;100.00
26775;BME280;14362;51.902;7.626;2023-02-03T09:02:55;101537.34;;;9.29;100.00
26775;BME280;14362;51.902;7.626;2023-02-03T09:06:56;101540.97;;;9.29;100.00
26775;BME280;14362;51.902;7.626;2023-02-03T09:10:58;101544.06;;;9.28;100.00
26775;BME280;14362;51.902;7.626;2023-02-03T09:14:59;101548.22;;;9.25;100.00
26775;BME280;14362;51.902;7.626;2023-02-03T09:19:02;101531.84;;;9.24;100.00
26775;BME280;14362;51.902;7.626;2023-02-03T09:23:04;101548.50;;;9.29;100.00
26775;BME280;14362;51.902;7.626;2023-02-03T09:27:05;101547.47;;;9.20;100.00
26775;BME280;14362;51.902;7.626;2023-02-03T09:31:08;101560.44;;;9.29;100.00
26775;BME280;14362;51.902;7.626;2023-02-03T09:35:11;101563.09;;;9.39;100.00
26775;BME280;14362;51.902;7.626;2023-02-03T09:39:13;101573.81;;;9.27;100.00
26775;BME280;14362;51.902;7.626;2023-02-03T09:43:28;101579.25;;;9.37;100.00
26775;BME280;14362;51.902;7.626;2023-02-03T09:47:33;101567.38;;;9.32;100.00
26775;BME280;14362;51.902;7.626;2023-02-03T09:51:42;101571.03;;;9.27;100.00
26775;BME280;14362;51.902;7.626;2023-02-03T09:55:46;101586.00;;;9.31;100.00
26775;BME280;14362;51.902;7.626;2023-02-03T09:59:49;101562.63;;;9.32;100.00
26775;BME280;14362;51.902;7.626;2023-02-03T10:03:54;101569.03;;;9.33;100.00
26775;BME280;14362;51.902;7.626;2023-02-03T10:08:06;101560.25;;;9.44;100.00
26775;BME280;14362;51.902;7.626;2023-02-03T10:12:21;101567.56;;;9.40;100.00
26775;BME280;14362;51.902;7.626;2023-02-03T10:16:42;101579.50;;;9.41;100.00
26775;BME280;14362;51.902;7.626;2023-02-03T10:20:50;101597.31;;;9.40;100.00
26775;BME280;14362;51.902;7.626;2023-02-03T10:24:59;101585.28;;;9.44;100.00
26775;BME280;14362;51.902;7.626;2023-02-03T10:29:07;101597.91;;;9.37;100.00
26775;BME280;14362;51.902;7.626;2023-02-03T10:33:15;101609.44;;;9.25;100.00
26775;BME280;14362;51.902;7.626;2023-02-03T10:37:22;101607.84;;;9.19;100.00
26775;BME280;14362;51.902;7.626;2023-02-03T10:41:29;101594.88;;;9.10;100.00
26775;BME280;14362;51.902;7.626;2023-02-03T10:45:35;101592.09;;;9.10;100.00
26775;BME280;14362;51.902;7.626;2023-02-03T10:49:37;101609.88;;;9.14;100.00
26775;BME280;14362;51.902;7.626;2023-02-03T10:53:39;101613.94;;;9.21;100.00
26775;BME280;14362;51.902;7.626;2023-02-03T10:57:41;101610.28;;;9.26;100.00
26775;BME280;14362;51.902;7.626;2023-02-03T11:01:45;101611.72;;;9.23;100.00
26775;BME280;14362;51.902;7.626;2023-02-03T11:06:03;101614.72;;;9.27;100.00
26775;BME280;14362;51.902;7.626;2023-02-03T11:10:25;101622.72;;;9.33;100.00
26775;BME280;14362;51.902;7.626;2023-02-03T11:14:35;101624.97;;;9.31;100.00
26775;BME280;14362;51.902;7.626;2023-02-03T11:18:41;101618.94;;;9.24;100.00
26775;BME280;14362;51.902;7.626;2023-02-03T11:22:44;101613.38;;;9.24;100.00
26775;BME280;14362;51.902;7.626;2023-02-03T11:26:47;101624.97;;;9.31;100.00
26775;BME280;14362;51.902;7.626;2023-02-03T11:30:55;101620.63;;;9.20;100.00
26775;BME280;14362;51.902;7.626;2023-02-03T11:35:01;101621.22;;;9.17;100.00
26775;BME280;14362;51.902;7.626;2023-02-03T11:39:10;101613.22;;;9.11;100.00
26775;BME280;14362;51.902;7.626;2023-02-03T11:43:14;101612.44;;;9.06;100.00
26775;BME280;14362;51.902;7.626;2023-02-03T11:47:18;101634.16;;;9.04;100.00
26775;BME280;14362;51.902;7.626;2023-02-03T11:51:25;101634.44;;;9.02;100.00
26775;BME280;14362;51.902;7.626;2023-02-03T11:55:42;101640.88;;;8.98;100.00
26775;BME280;14362;51.902;7.626;2023-02-03T12:00:02;101635.31;;;8.98;100.00
26775;BME280;14362;51.902;7.626;2023-02-03T12:04:28;101642.19;;;9.05;100.00
26775;BME280;14362;51.902;7.626;2023-02-03T12:08:44;101637.13;;;9.12;100.00
26775;BME280;14362;51.902;7.626;2023-02-03T12:12:57;101652.44;;;9.10;100.00
26775;BME280;14362;51.902;7.626;2023-02-03T12:17:23;101650.16;;;9.16;100.00
26775;BME280;14362;51.902;7.626;2023-02-03T12:21:35;101660.44;;;9.16;100.00
26775;BME280;14362;51.902;7.626;2023-02-03T12:25:49;101667.97;;;9.15;100.00
26775;BME280;14362;51.902;7.626;2023-02-03T12:29:59;101684.06;;;9.18;100.00
26775;BME280;14362;51.902;7.626;2023-02-03T12:34:12;101682.38;;;9.22;100.00
26775;BME280;14362;51.902;7.626;2023-02-03T12:38:24;101672.09;;;9.18;100.00
26775;BME280;14362;51.902;7.626;2023-02-03T12:42:31;101669.03;;;9.19;100.00
26775;BME280;14362;51.902;7.626;2023-02-03T12:46:37;101676.81;;;9.22;100.00
26775;BME280;14362;51.902;7.626;2023-02-03T12:50:43;101670.94;;;9.24;100.00
26775;BME280;14362;51.902;7.626;2023-02-03T12:54:51;101673.53;;;9.15;100.00
26775;BME280;14362;51.902;7.626;2023-02-03T12:59:00;101674.66;;;9.14;100.00
26775;BME280;14362;51.902;7.626;2023-02-03T13:03:12;101690.22;;;9.15;100.00
26775;BME280;14362;51.902;7.626;2023-02-03T13:07:17;101680.50;;;9.13;100.00
26775;BME280;14362;51.902;7.626;2023-02-03T13:11:26;101682.94;;;9.19;100.00
26775;BME280;14362;51.902;7.626;2023-02-03T13:15:31;101695.19;;;9.18;100.00
26775;BME280;14362;51.902;7.626;2023-02-03T13:19:39;101691.03;;;9.16;100.00
26775;BME280;14362;51.902;7.626;2023-02-03T13:23:42;101679.63;;;9.17;100.00
26775;BME280;14362;51.902;7.626;2023-02-03T13:27:52;101675.50;;;9.15;100.00
26775;BME280;14362;51.902;7.626;2023-02-03T13:32:10;101688.59;;;9.10;100.00
26775;BME280;14362;51.902;7.626;2023-02-03T13:36:56;101681.66;;;9.07;100.00
26775;BME280;14362;51.902;7.626;2023-02-03T13:41:07;101688.91;;;9.08;100.00
26775;BME280;14362;51.902;7.626;2023-02-03T13:45:17;101672.75;;;9.10;100.00
26775;BME280;14362;51.902;7.626;2023-02-03T13:49:23;101685.03;;;9.04;100.00
26775;BME280;14362;51.902;7.626;2023-02-03T13:53:26;101692.56;;;9.04;100.00
26775;BME280;14362;51.902;7.626;2023-02-03T13:57:33;101692.56;;;9.04;100.00
26775;BME280;14362;51.902;7.626;2023-02-03T14:01:38;101712.38;;;8.92;100.00
26775;BME280;14362;51.902;7.626;2023-02-03T14:05:42;101701.19;;;8.97;100.00
26775;BME280;14362;51.902;7.626;2023-02-03T14:09:45;101713.22;;;8.93;100.00
26775;BME280;14362;51.902;7.626;2023-02-03T14:13:47;101724.09;;;8.89;100.00
26775;BME280;14362;51.902;7.626;2023-02-03T14:18:01;101732.69;;;8.88;100.00
26775;BME280;14362;51.902;7.626;2023-02-03T14:22:05;101737.66;;;8.96;100.00
26775;BME280;14362;51.902;7.626;2023-02-03T14:26:15;101754.34;;;8.96;100.00
26775;BME280;14362;51.902;7.626;2023-02-03T14:30:18;101768.00;;;8.92;100.00
26775;BME280;14362;51.902;7.626;2023-02-03T14:34:29;101771.91;;;8.86;100.00
26775;BME280;14362;51.902;7.626;2023-02-03T14:38:31;101764.38;;;8.92;100.00
26775;BME280;14362;51.902;7.626;2023-02-03T14:42:52;101774.91;;;8.95;100.00
26775;BME280;14362;51.902;7.626;2023-02-03T14:47:05;101777.13;;;8.98;100.00
26775;BME280;14362;51.902;7.626;2023-02-03T14:51:20;101800.84;;;8.85;100.00
26775;BME280;14362;51.902;7.626;2023-02-03T14:55:34;101792.19;;;8.92;100.00
26775;BME280;14362;51.902;7.626;2023-02-03T14:59:41;101799.16;;;8.89;100.00
26775;BME280;14362;51.902;7.626;2023-02-03T15:04:20;101817.75;;;8.94;100.00
26775;BME280;14362;51.902;7.626;2023-02-03T15:08:31;101803.63;;;8.85;100.00
26775;BME280;14362;51.902;7.626;2023-02-03T15:12:35;101815.63;;;8.76;100.00
26775;BME280;14362;51.902;7.626;2023-02-03T15:16:37;101808.97;;;8.77;100.00
26775;BME280;14362;51.902;7.626;2023-02-03T15:20:45;101811.16;;;8.80;100.00
26775;BME280;14362;51.902;7.626;2023-02-03T15:24:49;101823.19;;;8.70;100.00
26775;BME280;14362;51.902;7.626;2023-02-03T15:28:53;101830.38;;;8.76;100.00
26775;BME280;14362;51.902;7.626;2023-02-03T15:33:00;101847.31;;;8.75;100.00
26775;BME280;14362;51.902;7.626;2023-02-03T15:37:07;101850.13;;;8.70;100.00
26775;BME280;14362;51.902;7.626;2023-02-03T15:41:16;101845.16;;;8.67;100.00
26775;BME280;14362;51.902;7.626;2023-02-03T15:45:26;101854.88;;;8.64;100.00
26775;BME280;14362;51.902;7.626;2023-02-03T15:49:31;101845.44;;;8.60;100.00
26775;BME280;14362;51.902;7.626;2023-02-03T15:53:35;101854.63;;;8.61;100.00
26775;BME280;14362;51.902;7.626;2023-02-03T15:57:38;101856.03;;;8.58;100.00
26775;BME280;14362;51.902;7.626;2023-02-03T16:01:40;101864.09;;;8.55;100.00
26775;BME280;14362;51.902;7.626;2023-02-03T16:05:41;101870.19;;;8.52;100.00
26775;BME280;14362;51.902;7.626;2023-02-03T16:09:50;101861.31;;;8.50;100.00
26775;BME280;14362;51.902;7.626;2023-02-03T16:13:54;101878.00;;;8.50;100.00
26775;BME280;14362;51.902;7.626;2023-02-03T16:17:56;101885.81;;;8.43;100.00
26775;BME280;14362;51.902;7.626;2023-02-03T16:21:58;101900.25;;;8.45;100.00
26775;BME280;14362;51.902;7.626;2023-02-03T16:26:05;101916.38;;;8.48;100.00
26775;BME280;14362;51.902;7.626;2023-02-03T16:30:23;101911.94;;;8.47;100.00
26775;BME280;14362;51.902;7.626;2023-02-03T16:34:43;101917.50;;;8.37;100.00
26775;BME280;14362;51.902;7.626;2023-02-03T16:39:08;101910.25;;;8.41;100.00
26775;BME280;14362;51.902;7.626;2023-02-03T16:43:27;101918.59;;;8.31;100.00
26775;BME280;14362;51.902;7.626;2023-02-03T16:47:48;101927.50;;;8.33;100.00
26775;BME280;14362;51.902;7.626;2023-02-03T16:52:07;101935.31;;;8.21;100.00
26775;BME280;14362;51.902;7.626;2023-02-03T16:56:09;101933.09;;;8.18;100.00
26775;BME280;14362;51.902;7.626;2023-02-03T17:00:11;101954.19;;;8.19;100.00
26775;BME280;14362;51.902;7.626;2023-02-03T17:04:14;101951.41;;;8.09;100.00
26775;BME280;14362;51.902;7.626;2023-02-03T17:08:18;101956.09;;;8.04;100.00
26775;BME280;14362;51.902;7.626;2023-02-03T17:12:19;101963.34;;;8.00;100.00
26775;BME280;14362;51.902;7.626;2023-02-03T17:16:22;101974.44;;;8.00;100.00
26775;BME280;14362;51.902;7.626;2023-02-03T17:20:25;101981.38;;;7.97;100.00
26775;BME280;14362;51.902;7.626;2023-02-03T17:24:27;101986.66;;;7.99;100.00
26775;BME280;14362;51.902;7.626;2023-02-03T17:28:28;101981.66;;;7.96;100.00
26775;BME280;14362;51.902;7.626;2023-02-03T17:32:30;101987.47;;;7.94;100.00
26775;BME280;14362;51.902;7.626;2023-02-03T17:36:32;101983.88;;;7.94;100.00
26775;BME280;14362;51.902;7.626;2023-02-03T17:40:34;101991.38;;;7.88;100.00
26775;BME280;14362;51.902;7.626;2023-02-03T17:44:38;101988.84;;;7.87;100.00
26775;BME280;14362;51.902;7.626;2023-02-03T17:48:39;101986.66;;;7.89;100.00
26775;BME280;14362;51.902;7.626;2023-02-03T17:52:42;101979.16;;;7.89;100.00
26775;BME280;14362;51.902;7.626;2023-02-03T17:56:44;101993.59;;;7.86;100.00
26775;BME280;14362;51.902;7.626;2023-02-03T18:00:48;102005.25;;;7.83;100.00
26775;BME280;14362;51.902;7.626;2023-02-03T18:04:49;102010.25;;;7.86;100.00
26775;BME280;14362;51.902;7.626;2023-02-03T18:08:52;102015.81;;;7.91;100.00
26775;BME280;14362;51.902;7.626;2023-02-03T18:13:00;102019.94;;;7.89;100.00
26775;BME280;14362;51.902;7.626;2023-02-03T18:17:01;102024.69;;;7.88;100.00
26775;BME280;14362;51.902;7.626;2023-02-03T18:21:04;102032.47;;;7.86;100.00
26775;BME280;14362;51.902;7.626;2023-02-03T18:25:09;102041.88;;;7.85;100.00
26775;BME280;14362;51.902;7.626;2023-02-03T18:29:11;102045.78;;;7.89;100.00
26775;BME280;14362;51.902;7.626;2023-02-03T18:33:13;102048.00;;;7.87;100.00
26775;BME280;14362;51.902;7.626;2023-02-03T18:37:15;102061.56;;;7.84;100.00
26775;BME280;14362;51.902;7.626;2023-02-03T18:41:19;102056.88;;;7.84;100.00
26775;BME280;14362;51.902;7.626;2023-02-03T18:45:20;102046.91;;;7.88;100.00
26775;BME280;14362;51.902;7.626;2023-02-03T18:49:22;102063.56;;;7.88;100.00
26775;BME280;14362;51.902;7.626;2023-02-03T18:53:23;102066.31;;;7.88;100.00
26775;BME280;14362;51.902;7.626;2023-02-03T18:57:26;102078.25;;;7.89;100.00
26775;BME280;14362;51.902;7.626;2023-02-03T19:01:29;102074.91;;;7.87;100.00
26775;BME280;14362;51.902;7.626;2023-02-03T19:05:31;102091.88;;;7.90;100.00
26775;BME280;14362;51.902;7.626;2023-02-03T19:09:32;102092.72;;;8.01;100.00
26775;BME280;14362;51.902;7.626;2023-02-03T19:13:35;102085.19;;;7.96;100.00
26775;BME280;14362;51.902;7.626;2023-02-03T19:17:37;102091.31;;;7.93;100.00
26775;BME280;14362;51.902;7.626;2023-02-03T19:21:38;102102.41;;;7.88;100.00
26775;BME280;14362;51.902;7.626;2023-02-03T19:25:40;102104.34;;;7.88;100.00
26775;BME280;14362;51.902;7.626;2023-02-03T19:29:42;102104.34;;;7.88;100.00
26775;BME280;14362;51.902;7.626;2023-02-03T19:33:47;102117.13;;;7.89;100.00
26775;BME280;14362;51.902;7.626;2023-02-03T19:37:48;102120.16;;;7.82;100.00
26775;BME280;14362;51.902;7.626;2023-02-03T19:41:50;102120.44;;;7.81;100.00
26775;BME280;14362;51.902;7.626;2023-02-03T19:45:52;102132.34;;;7.81;100.00
26775;BME280;14362;51.902;7.626;2023-02-03T19:49:54;102144.84;;;7.79;100.00
26775;BME280;14362;51.902;7.626;2023-02-03T19:53:55;102141.50;;;7.77;100.00
26775;BME280;14362;51.902;7.626;2023-02-03T19:57:58;102142.66;;;7.81;100.00
26775;BME280;14362;51.902;7.626;2023-02-03T20:02:01;102130.09;;;7.68;100.00
26775;BME280;14362;51.902;7.626;2023-02-03T20:06:02;102140.34;;;7.68;100.00
26775;BME280;14362;51.902;7.626;2023-02-03T20:10:04;102147.00;;;7.67;100.00
26775;BME280;14362;51.902;7.626;2023-02-03T20:14:06;102145.91;;;7.63;100.00
26775;BME280;14362;51.902;7.626;2023-02-03T20:18:09;102161.09;;;7.55;100.00
26775;BME280;14362;51.902;7.626;2023-02-03T20:22:10;102167.22;;;7.52;100.00
26775;BME280;14362;51.902;7.626;2023-02-03T20:26:12;102169.09;;;7.42;100.00
26775;BME280;14362;51.902;7.626;2023-02-03T20:30:13;102178.53;;;7.41;100.00
26775;BME280;14362;51.902;7.626;2023-02-03T20:34:16;102182.94;;;7.37;100.00
26775;BME280;14362;51.902;7.626;2023-02-03T20:38:18;102201.22;;;7.33;100.00
26775;BME280;14362;51.902;7.626;2023-02-03T20:42:19;102198.50;;;7.43;100.00
26775;BME280;14362;51.902;7.626;2023-02-03T20:46:20;102214.06;;;7.44;100.00
26775;BME280;14362;51.902;7.626;2023-02-03T20:50:24;102224.25;;;7.38;100.00
26775;BME280;14362;51.902;7.626;2023-02-03T20:54:25;102219.81;;;7.37;100.00
26775;BME280;14362;51.902;7.626;2023-02-03T20:58:28;102227.88;;;7.39;100.00
26775;BME280;14362;51.902;7.626;2023-02-03T21:02:32;102234.34;;;7.49;100.00
26775;BME280;14362;51.902;7.626;2023-02-03T21:06:55;102231.28;;;7.51;100.00
26775;BME280;14362;51.902;7.626;2023-02-03T21:10:57;102236.59;;;7.52;100.00
26775;BME280;14362;51.902;7.626;2023-02-03T21:14:58;102237.94;;;7.45;100.00
26775;BME280;14362;51.902;7.626;2023-02-03T21:18:59;102253.19;;;7.47;100.00
26775;BME280;14362;51.902;7.626;2023-02-03T21:23:08;102264.00;;;7.49;100.00